Redwood City, CA (94064)

10:01 AM PDT on August 27, 2014 (GMT -0700)
Sterling Heights | Change Station
CLOSE
Current Station
Personal Weather Station
Location: Redwood City, CA
Elevation: 134 ft
Nearby Weather Stations

Elev 134 ft 37.46 °N, 122.25 °W | Updated 2 seconds ago

Partly Cloudy
Partly Cloudy
71.4 °F
Feels Like 74 °F
N
0.9
Wind Variable Wind from ESE
Gusts 3.0 mph

Today
High -- | Low -- °F
--% Chance of Precip.
Yesterday
High -- | Low -- °F
Precip. -- in
6:35 AM 7:45 PM
Waxing Crescent, 4% visible
Pressure 30.07 in
Visibility 10.0 miles
Clouds Few 1000 ft
Heat Index 74 °F
Dew Point 62 °F
Humidity 71%
Rainfall 0.00 in
Snow Depth Not available.
UV 4 out of 12
Pollen 7.00 out of 12
PM2.5 Good
Flu Activity Not available.
METAR KSQL 271655Z 00000KT 10SM FEW010 20/15 A3007

More Conditions Fewer Conditions

Pressure 30.07 in
Visibility 10.0 miles
Clouds Few 1000 ft
Heat Index 74 °F
Dew Point 62 °F
Humidity 71%
Rainfall 0.00 in
Snow Depth Not available.
UV 4 out of 12
Pollen 7.00 out of 12
PM2.5 Good
Flu Activity Not available.
METAR KSQL 271655Z 00000KT 10SM FEW010 20/15 A3007

More Conditions Fewer Conditions

10-Day Weather Forecast

Almanac

Astronomy

Aug. 27, 2014 Rise Set
Actual Time 6:35 AM PDT 7:45 PM PDT
Civil Twilight 6:08 AM PDT 8:11 PM PDT
Nautical Twilight 5:36 AM PDT 8:44 PM PDT
Astronomical Twilight 5:02 AM PDT 9:17 PM PDT
Moon 8:33 AM PDT 8:43 PM PDT
Length of Visible Light 14h 03m
Length of Day
13h 09m
Tomorrow will be 2m 16s shorter.
Waxing Crescent, 4% of the Moon is Illuminated
Today
Waxing Crescent
Sep 2
First Quarter
Sep 8
Full
Sep 15
Last Quarter
Sep 24
New

Today's Extremes

State Highs State Lows

Community

WunderPhotos

Upload Photos

1,747,727 photos uploaded!

Nearby

Air Quality

  Air Quality AQ Index Pollutant
Yesterday Good
PM2.5
Yesterday Good
OZONE
Current Good
PM2.5
Wednesday Good
PM2.5
Thursday Good
PM2.5
Friday Good
PM2.5
Saturday Good
PM2.5
Sunday Good
PM2.5

Snow Depth

Station Depth Elevation
Blue Lakes 0 in 8000 ft
Forestdale Creek 0 in 8029 ft
Sonora Pass 0 in 8800 ft
Summit Meadow 0 in 9122 ft
CSS Lab 2 in 6900 ft

Earthquake Activity

City Distance Mag. Time & Date
The Geysers, California 98 miles 2.6 7:42 AM PDT
2014-08-27
Soledad, California 89 miles 2.6 12:15 PM PDT
2014-08-26
Napa, California 53 miles 2.5 10:56 AM PDT
2014-08-26
Napa, California 54 miles 3.0 6:45 AM PDT
2014-08-26
Minimum magnitude displayed is 2.5.

Coastal Water Temperatures

Place Temperature
No Stations Reporting

Nearby Weather Stations